Cuaca Aktual Bandara Mali

Waktu Pengamatan : 2021-11-29 06:00:00 WITA


DAY-CLEAR-CLOUDY
Cerah - berawan
Suhu Udara
25 °C
Titik Embun
24 °C

Tekanan Udara 1008 hPa
Jarak Pandang >=10 km

Angin
Tenang
METAR Terkini : METAR WATM 282200Z 00000KT 9999 FEW019 25/24 Q1008|NOSIG=